sensor_id;sensor_type;location;lat;lon;timestamp;pressure;altitude;pressure_sealevel;temperature;humidity
41334;BME280;27078;46.428;6.256;2023-02-12T00:01:23;98241.31;;;0.33;93.72
41334;BME280;27078;46.428;6.256;2023-02-12T00:03:49;98237.94;;;0.30;94.20
41334;BME280;27078;46.428;6.256;2023-02-12T00:06:14;98238.88;;;0.26;94.94
41334;BME280;27078;46.428;6.256;2023-02-12T00:08:40;98240.56;;;0.27;94.87
41334;BME280;27078;46.428;6.256;2023-02-12T00:11:07;98239.69;;;0.28;94.15
41334;BME280;27078;46.428;6.256;2023-02-12T00:13:32;98237.09;;;0.28;93.42
41334;BME280;27078;46.428;6.256;2023-02-12T00:16:03;98236.19;;;0.29;93.16
41334;BME280;27078;46.428;6.256;2023-02-12T00:18:29;98240.53;;;0.30;92.92
41334;BME280;27078;46.428;6.256;2023-02-12T00:20:58;98238.81;;;0.29;93.64
41334;BME280;27078;46.428;6.256;2023-02-12T00:23:24;98232.78;;;0.27;93.02
41334;BME280;27078;46.428;6.256;2023-02-12T00:25:49;98230.16;;;0.27;94.55
41334;BME280;27078;46.428;6.256;2023-02-12T00:28:14;98239.72;;;0.26;91.88
41334;BME280;27078;46.428;6.256;2023-02-12T00:30:40;98236.34;;;0.21;92.20
41334;BME280;27078;46.428;6.256;2023-02-12T00:33:05;98242.41;;;0.22;91.70
41334;BME280;27078;46.428;6.256;2023-02-12T00:35:31;98235.38;;;0.27;90.21
41334;BME280;27078;46.428;6.256;2023-02-12T00:37:56;98241.50;;;0.24;91.30
41334;BME280;27078;46.428;6.256;2023-02-12T00:40:21;98247.53;;;0.25;91.90
41334;BME280;27078;46.428;6.256;2023-02-12T00:42:47;98251.25;;;0.11;93.39
41334;BME280;27078;46.428;6.256;2023-02-12T00:45:12;98244.41;;;0.07;94.73
41334;BME280;27078;46.428;6.256;2023-02-12T00:47:37;98247.88;;;0.06;93.93
41334;BME280;27078;46.428;6.256;2023-02-12T00:50:03;98246.03;;;0.13;94.28
41334;BME280;27078;46.428;6.256;2023-02-12T00:52:28;98252.03;;;0.16;94.73
41334;BME280;27078;46.428;6.256;2023-02-12T00:54:54;98257.94;;;0.25;95.43
41334;BME280;27078;46.428;6.256;2023-02-12T00:57:19;98250.94;;;0.30;93.78
41334;BME280;27078;46.428;6.256;2023-02-12T00:59:44;98240.53;;;0.30;92.70
41334;BME280;27078;46.428;6.256;2023-02-12T01:02:09;98251.78;;;0.29;94.53
41334;BME280;27078;46.428;6.256;2023-02-12T01:04:35;98244.06;;;0.26;95.63
41334;BME280;27078;46.428;6.256;2023-02-12T01:07:00;98246.63;;;0.27;98.47
41334;BME280;27078;46.428;6.256;2023-02-12T01:09:25;98256.88;;;0.35;98.39
41334;BME280;27078;46.428;6.256;2023-02-12T01:11:51;98264.69;;;0.35;98.94
41334;BME280;27078;46.428;6.256;2023-02-12T01:14:16;98259.56;;;0.32;99.33
41334;BME280;27078;46.428;6.256;2023-02-12T01:16:41;98262.19;;;0.30;100.00
41334;BME280;27078;46.428;6.256;2023-02-12T01:19:07;98269.06;;;0.31;100.00
41334;BME280;27078;46.428;6.256;2023-02-12T01:21:34;98264.53;;;0.43;100.00
41334;BME280;27078;46.428;6.256;2023-02-12T01:24:00;98267.91;;;0.46;100.00
41334;BME280;27078;46.428;6.256;2023-02-12T01:26:26;98263.63;;;0.45;100.00
41334;BME280;27078;46.428;6.256;2023-02-12T01:28:57;98268.81;;;0.45;100.00
41334;BME280;27078;46.428;6.256;2023-02-12T01:31:25;98260.13;;;0.46;100.00
41334;BME280;27078;46.428;6.256;2023-02-12T01:33:52;98268.81;;;0.45;99.54
41334;BME280;27078;46.428;6.256;2023-02-12T01:36:18;98266.09;;;0.51;99.36
41334;BME280;27078;46.428;6.256;2023-02-12T01:38:43;98266.97;;;0.50;98.49
41334;BME280;27078;46.428;6.256;2023-02-12T01:41:15;98261.81;;;0.49;99.41
41334;BME280;27078;46.428;6.256;2023-02-12T01:43:41;98260.13;;;0.46;100.00
41334;BME280;27078;46.428;6.256;2023-02-12T01:46:09;98249.88;;;0.38;100.00
41334;BME280;27078;46.428;6.256;2023-02-12T01:48:41;98249.19;;;0.30;99.40
41334;BME280;27078;46.428;6.256;2023-02-12T01:51:08;98242.34;;;0.25;100.00
41334;BME280;27078;46.428;6.256;2023-02-12T01:53:40;98247.66;;;0.17;100.00
41334;BME280;27078;46.428;6.256;2023-02-12T01:56:07;98245.00;;;-0.27;100.00
41334;BME280;27078;46.428;6.256;2023-02-12T01:58:37;98240.16;;;-0.48;100.00
41334;BME280;27078;46.428;6.256;2023-02-12T02:01:05;98239.44;;;-0.58;100.00
41334;BME280;27078;46.428;6.256;2023-02-12T02:03:33;98234.41;;;-0.67;100.00
41334;BME280;27078;46.428;6.256;2023-02-12T02:06:09;98234.34;;;-0.63;100.00
41334;BME280;27078;46.428;6.256;2023-02-12T02:08:36;98227.22;;;-0.51;100.00
41334;BME280;27078;46.428;6.256;2023-02-12T02:11:02;98225.38;;;-0.45;100.00
41334;BME280;27078;46.428;6.256;2023-02-12T02:13:47;98221.06;;;-0.44;100.00
41334;BME280;27078;46.428;6.256;2023-02-12T02:16:33;98219.44;;;-0.51;100.00
41334;BME280;27078;46.428;6.256;2023-02-12T02:19:04;98214.13;;;-0.45;100.00
41334;BME280;27078;46.428;6.256;2023-02-12T02:29:45;98215.47;;;-0.21;100.00
41334;BME280;27078;46.428;6.256;2023-02-12T02:32:24;98212.00;;;-0.22;100.00
41334;BME280;27078;46.428;6.256;2023-02-12T02:35:02;98211.28;;;-0.30;100.00
41334;BME280;27078;46.428;6.256;2023-02-12T02:40:12;98210.88;;;-0.56;100.00
41334;BME280;27078;46.428;6.256;2023-02-12T02:47:47;98220.78;;;-0.83;100.00
41334;BME280;27078;46.428;6.256;2023-02-12T02:50:20;98219.94;;;-0.84;100.00
41334;BME280;27078;46.428;6.256;2023-02-12T02:52:51;98226.88;;;-0.83;100.00
41334;BME280;27078;46.428;6.256;2023-02-12T02:55:19;98219.88;;;-0.79;100.00
41334;BME280;27078;46.428;6.256;2023-02-12T02:57:54;98213.66;;;-0.67;100.00
41334;BME280;27078;46.428;6.256;2023-02-12T03:00:25;98213.63;;;-0.66;100.00
41334;BME280;27078;46.428;6.256;2023-02-12T03:03:01;98213.56;;;-0.61;100.00
41334;BME280;27078;46.428;6.256;2023-02-12T03:05:34;98216.91;;;-0.54;100.00
41334;BME280;27078;46.428;6.256;2023-02-12T03:08:11;98217.66;;;-0.49;100.00
41334;BME280;27078;46.428;6.256;2023-02-12T03:10:42;98211.56;;;-0.47;100.00
41334;BME280;27078;46.428;6.256;2023-02-12T03:13:36;98208.91;;;-0.42;100.00
41334;BME280;27078;46.428;6.256;2023-02-12T03:16:30;98213.19;;;-0.39;100.00
41334;BME280;27078;46.428;6.256;2023-02-12T03:19:11;98215.81;;;-0.43;100.00
41334;BME280;27078;46.428;6.256;2023-02-12T03:21:45;98212.34;;;-0.40;100.00
41334;BME280;27078;46.428;6.256;2023-02-12T03:24:22;98207.19;;;-0.43;100.00
41334;BME280;27078;46.428;6.256;2023-02-12T03:27:01;98207.19;;;-0.43;100.00
41334;BME280;27078;46.428;6.256;2023-02-12T03:29:27;98198.56;;;-0.45;100.00
41334;BME280;27078;46.428;6.256;2023-02-12T03:37:29;98211.44;;;-0.37;100.00
41334;BME280;27078;46.428;6.256;2023-02-12T03:40:06;98208.03;;;-0.41;100.00
41334;BME280;27078;46.428;6.256;2023-02-12T03:42:46;98201.97;;;-0.40;100.00
41334;BME280;27078;46.428;6.256;2023-02-12T03:45:49;98203.72;;;-0.42;100.00
41334;BME280;27078;46.428;6.256;2023-02-12T03:48:21;98202.00;;;-0.45;100.00
41334;BME280;27078;46.428;6.256;2023-02-12T03:50:53;98205.59;;;-0.50;100.00
41334;BME280;27078;46.428;6.256;2023-02-12T03:53:21;98211.69;;;-0.53;100.00
41334;BME280;27078;46.428;6.256;2023-02-12T03:55:50;98214.22;;;-0.48;100.00
41334;BME280;27078;46.428;6.256;2023-02-12T03:58:20;98207.28;;;-0.49;100.00
41334;BME280;27078;46.428;6.256;2023-02-12T04:00:47;98217.72;;;-0.52;100.00
41334;BME280;27078;46.428;6.256;2023-02-12T04:03:12;98215.22;;;-0.58;100.00
41334;BME280;27078;46.428;6.256;2023-02-12T04:05:38;98223.06;;;-0.62;100.00
41334;BME280;27078;46.428;6.256;2023-02-12T04:08:06;98219.63;;;-0.64;100.00
41334;BME280;27078;46.428;6.256;2023-02-12T04:13:18;98224.97;;;-0.73;100.00
41334;BME280;27078;46.428;6.256;2023-02-12T04:18:24;98225.06;;;-0.79;100.00
41334;BME280;27078;46.428;6.256;2023-02-12T04:26:09;98216.41;;;-0.78;100.00
41334;BME280;27078;46.428;6.256;2023-02-12T04:28:47;98217.28;;;-0.79;100.00
41334;BME280;27078;46.428;6.256;2023-02-12T04:31:38;98215.75;;;-0.92;100.00
41334;BME280;27078;46.428;6.256;2023-02-12T04:34:18;98208.78;;;-0.89;100.00
41334;BME280;27078;46.428;6.256;2023-02-12T04:39:28;98214.94;;;-0.94;100.00
41334;BME280;27078;46.428;6.256;2023-02-12T04:41:58;98215.75;;;-0.92;100.00
41334;BME280;27078;46.428;6.256;2023-02-12T04:44:26;98208.72;;;-0.86;100.00
41334;BME280;27078;46.428;6.256;2023-02-12T04:46:52;98207.81;;;-0.83;100.00
41334;BME280;27078;46.428;6.256;2023-02-12T04:49:19;98211.16;;;-0.75;100.00
41334;BME280;27078;46.428;6.256;2023-02-12T04:51:45;98197.34;;;-0.77;100.00
41334;BME280;27078;46.428;6.256;2023-02-12T04:54:12;98210.34;;;-0.78;100.00
41334;BME280;27078;46.428;6.256;2023-02-12T04:56:37;98217.34;;;-0.84;100.00
41334;BME280;27078;46.428;6.256;2023-02-12T04:59:03;98219.88;;;-0.79;100.00
41334;BME280;27078;46.428;6.256;2023-02-12T05:01:28;98219.88;;;-0.80;100.00
41334;BME280;27078;46.428;6.256;2023-02-12T05:03:54;98222.59;;;-0.87;100.00
41334;BME280;27078;46.428;6.256;2023-02-12T05:06:19;98219.19;;;-0.90;100.00
41334;BME280;27078;46.428;6.256;2023-02-12T05:08:44;98227.81;;;-0.90;100.00
41334;BME280;27078;46.428;6.256;2023-02-12T05:11:10;98220.13;;;-0.94;100.00
41334;BME280;27078;46.428;6.256;2023-02-12T05:13:37;98227.84;;;-0.91;100.00
41334;BME280;27078;46.428;6.256;2023-02-12T05:16:04;98221.78;;;-0.90;100.00
41334;BME280;27078;46.428;6.256;2023-02-12T05:18:30;98220.88;;;-0.89;100.00
41334;BME280;27078;46.428;6.256;2023-02-12T05:21:01;98220.03;;;-0.88;100.00
41334;BME280;27078;46.428;6.256;2023-02-12T05:23:28;98222.53;;;-0.82;100.00
41334;BME280;27078;46.428;6.256;2023-02-12T05:25:57;98220.97;;;-0.95;100.00
41334;BME280;27078;46.428;6.256;2023-02-12T05:28:22;98216.69;;;-0.98;100.00
41334;BME280;27078;46.428;6.256;2023-02-12T05:30:47;98217.63;;;-1.02;100.00
41334;BME280;27078;46.428;6.256;2023-02-12T05:33:13;98223.84;;;-1.14;100.00
41334;BME280;27078;46.428;6.256;2023-02-12T05:35:38;98217.00;;;-1.18;100.00
41334;BME280;27078;46.428;6.256;2023-02-12T05:38:03;98217.03;;;-1.21;100.00
41334;BME280;27078;46.428;6.256;2023-02-12T05:40:29;98217.91;;;-1.20;100.00
41334;BME280;27078;46.428;6.256;2023-02-12T05:42:54;98214.41;;;-1.19;100.00
41334;BME280;27078;46.428;6.256;2023-02-12T05:45:19;98208.38;;;-1.21;100.00
41334;BME280;27078;46.428;6.256;2023-02-12T05:47:45;98205.81;;;-1.23;100.00
41334;BME280;27078;46.428;6.256;2023-02-12T05:50:10;98198.91;;;-1.23;100.00
41334;BME280;27078;46.428;6.256;2023-02-12T05:52:36;98205.72;;;-1.15;100.00
41334;BME280;27078;46.428;6.256;2023-02-12T05:55:01;98204.78;;;-1.11;100.00
41334;BME280;27078;46.428;6.256;2023-02-12T05:57:27;98211.72;;;-1.12;100.00
41334;BME280;27078;46.428;6.256;2023-02-12T05:59:52;98208.22;;;-1.08;100.00
41334;BME280;27078;46.428;6.256;2023-02-12T06:02:17;98202.19;;;-1.10;100.00
41334;BME280;27078;46.428;6.256;2023-02-12T06:04:43;98209.06;;;-1.07;100.00
41334;BME280;27078;46.428;6.256;2023-02-12T06:07:08;98218.66;;;-1.14;100.00
41334;BME280;27078;46.428;6.256;2023-02-12T06:09:34;98207.41;;;-1.13;100.00
41334;BME280;27078;46.428;6.256;2023-02-12T06:11:59;98207.38;;;-1.10;100.00
41334;BME280;27078;46.428;6.256;2023-02-12T06:14:25;98215.09;;;-1.07;100.00
41334;BME280;27078;46.428;6.256;2023-02-12T06:16:51;98211.69;;;-1.10;100.00
41334;BME280;27078;46.428;6.256;2023-02-12T06:19:18;98215.16;;;-1.10;100.00
41334;BME280;27078;46.428;6.256;2023-02-12T06:21:44;98218.63;;;-1.11;100.00
41334;BME280;27078;46.428;6.256;2023-02-12T06:24:11;98215.94;;;-1.05;100.00
41334;BME280;27078;46.428;6.256;2023-02-12T06:26:37;98219.44;;;-1.09;100.00
41334;BME280;27078;46.428;6.256;2023-02-12T06:29:03;98209.91;;;-1.08;100.00
41334;BME280;27078;46.428;6.256;2023-02-12T06:31:31;98216.84;;;-1.09;100.00
41334;BME280;27078;46.428;6.256;2023-02-12T06:33:59;98222.19;;;-1.18;100.00
41334;BME280;27078;46.428;6.256;2023-02-12T06:36:26;98233.41;;;-1.16;100.00
41334;BME280;27078;46.428;6.256;2023-02-12T06:38:51;98232.56;;;-1.18;100.00
41334;BME280;27078;46.428;6.256;2023-02-12T06:41:17;98225.53;;;-1.10;100.00
41334;BME280;27078;46.428;6.256;2023-02-12T06:43:43;98228.16;;;-1.13;100.00
41334;BME280;27078;46.428;6.256;2023-02-12T06:46:08;98232.41;;;-1.07;100.00
41334;BME280;27078;46.428;6.256;2023-02-12T06:48:34;98228.16;;;-1.14;100.00
41334;BME280;27078;46.428;6.256;2023-02-12T06:51:11;98234.47;;;-1.32;100.00
41334;BME280;27078;46.428;6.256;2023-02-12T06:53:37;98240.66;;;-1.44;100.00
41334;BME280;27078;46.428;6.256;2023-02-12T06:56:07;98250.28;;;-1.54;100.00
41334;BME280;27078;46.428;6.256;2023-02-12T06:58:36;98248.63;;;-1.58;100.00
41334;BME280;27078;46.428;6.256;2023-02-12T07:01:28;98245.03;;;-1.49;100.00
41334;BME280;27078;46.428;6.256;2023-02-12T07:03:56;98253.59;;;-1.42;100.00
41334;BME280;27078;46.428;6.256;2023-02-12T07:06:22;98251.78;;;-1.34;100.00
41334;BME280;27078;46.428;6.256;2023-02-12T07:08:47;98255.97;;;-1.24;100.00
41334;BME280;27078;46.428;6.256;2023-02-12T07:11:13;98256.72;;;-1.16;100.00
41334;BME280;27078;46.428;6.256;2023-02-12T07:13:40;98253.16;;;-1.06;100.00
41334;BME280;27078;46.428;6.256;2023-02-12T07:16:11;98250.41;;;-0.95;100.00
41334;BME280;27078;46.428;6.256;2023-02-12T07:18:38;98252.78;;;-0.81;100.00
41334;BME280;27078;46.428;6.256;2023-02-12T07:21:04;98250.84;;;-0.67;100.00
41334;BME280;27078;46.428;6.256;2023-02-12T07:23:31;98251.50;;;-0.54;100.00
41334;BME280;27078;46.428;6.256;2023-02-12T07:26:05;98250.66;;;-0.54;100.00
41334;BME280;27078;46.428;6.256;2023-02-12T07:28:32;98252.25;;;-0.46;100.00
41334;BME280;27078;46.428;6.256;2023-02-12T07:30:58;98254.72;;;-0.38;100.00
41334;BME280;27078;46.428;6.256;2023-02-12T07:33:23;98260.63;;;-0.30;100.00
41334;BME280;27078;46.428;6.256;2023-02-12T07:35:49;98267.63;;;-0.35;100.00
41334;BME280;27078;46.428;6.256;2023-02-12T07:38:14;98264.75;;;-0.18;100.00
41334;BME280;27078;46.428;6.256;2023-02-12T07:40:39;98263.09;;;-0.21;100.00
41334;BME280;27078;46.428;6.256;2023-02-12T07:43:05;98263.75;;;-0.09;100.00
41334;BME280;27078;46.428;6.256;2023-02-12T07:45:30;98270.41;;;0.06;100.00
41334;BME280;27078;46.428;6.256;2023-02-12T07:47:55;98271.84;;;0.22;100.00
41334;BME280;27078;46.428;6.256;2023-02-12T07:50:21;98276.84;;;0.33;100.00
41334;BME280;27078;46.428;6.256;2023-02-12T07:52:49;98279.16;;;0.48;100.00
41334;BME280;27078;46.428;6.256;2023-02-12T07:55:15;98270.16;;;0.65;100.00
41334;BME280;27078;46.428;6.256;2023-02-12T07:57:40;98273.22;;;0.85;100.00
41334;BME280;27078;46.428;6.256;2023-02-12T08:00:08;98275.34;;;1.07;100.00
41334;BME280;27078;46.428;6.256;2023-02-12T08:02:33;98263.63;;;1.26;100.00
41334;BME280;27078;46.428;6.256;2023-02-12T08:04:59;98261.72;;;1.34;100.00
41334;BME280;27078;46.428;6.256;2023-02-12T08:07:24;98258.03;;;1.43;100.00
41334;BME280;27078;46.428;6.256;2023-02-12T08:09:50;98262.25;;;1.49;100.00
41334;BME280;27078;46.428;6.256;2023-02-12T08:12:16;98262.19;;;1.50;100.00
41334;BME280;27078;46.428;6.256;2023-02-12T08:14:42;98269.66;;;1.66;100.00
41334;BME280;27078;46.428;6.256;2023-02-12T08:17:08;98267.47;;;1.85;100.00
41334;BME280;27078;46.428;6.256;2023-02-12T08:19:34;98267.75;;;2.08;100.00
41334;BME280;27078;46.428;6.256;2023-02-12T08:21:59;98275.03;;;2.28;100.00
41334;BME280;27078;46.428;6.256;2023-02-12T08:24:27;98261.97;;;2.61;100.00
41334;BME280;27078;46.428;6.256;2023-02-12T08:26:53;98261.75;;;2.98;100.00
41334;BME280;27078;46.428;6.256;2023-02-12T08:29:21;98258.44;;;3.21;100.00
41334;BME280;27078;46.428;6.256;2023-02-12T08:31:49;98260.94;;;3.26;100.00
41334;BME280;27078;46.428;6.256;2023-02-12T08:34:21;98265.09;;;3.32;100.00
41334;BME280;27078;46.428;6.256;2023-02-12T08:36:48;98264.94;;;3.36;100.00
41334;BME280;27078;46.428;6.256;2023-02-12T08:39:15;98266.22;;;3.51;100.00
41334;BME280;27078;46.428;6.256;2023-02-12T08:41:40;98256.97;;;3.69;100.00
41334;BME280;27078;46.428;6.256;2023-02-12T08:44:09;98252.44;;;4.01;100.00
41334;BME280;27078;46.428;6.256;2023-02-12T08:46:38;98251.53;;;4.27;99.61
41334;BME280;27078;46.428;6.256;2023-02-12T08:49:10;98257.94;;;4.43;98.24
41334;BME280;27078;46.428;6.256;2023-02-12T08:51:38;98253.69;;;4.64;94.78
41334;BME280;27078;46.428;6.256;2023-02-12T08:54:06;98250.00;;;4.70;92.73
41334;BME280;27078;46.428;6.256;2023-02-12T08:56:33;98249.06;;;4.95;94.44
41334;BME280;27078;46.428;6.256;2023-02-12T08:59:00;98235.78;;;5.23;93.68
41334;BME280;27078;46.428;6.256;2023-02-12T09:01:29;98232.56;;;5.38;91.78
41334;BME280;27078;46.428;6.256;2023-02-12T09:03:55;98241.78;;;5.48;90.86
41334;BME280;27078;46.428;6.256;2023-02-12T09:06:22;98241.78;;;5.69;92.01
41334;BME280;27078;46.428;6.256;2023-02-12T09:08:48;98233.09;;;5.68;90.80
41334;BME280;27078;46.428;6.256;2023-02-12T09:11:16;98231.69;;;5.60;88.27
41334;BME280;27078;46.428;6.256;2023-02-12T09:13:43;98230.81;;;5.81;87.15
41334;BME280;27078;46.428;6.256;2023-02-12T09:16:10;98233.63;;;5.77;86.39
41334;BME280;27078;46.428;6.256;2023-02-12T09:18:36;98234.97;;;5.65;84.43
41334;BME280;27078;46.428;6.256;2023-02-12T09:21:09;98231.66;;;5.82;86.33
41334;BME280;27078;46.428;6.256;2023-02-12T09:23:35;98237.59;;;5.87;82.07
41334;BME280;27078;46.428;6.256;2023-02-12T09:26:06;98237.28;;;5.95;86.22
41334;BME280;27078;46.428;6.256;2023-02-12T09:28:32;98239.72;;;5.99;83.71
41334;BME280;27078;46.428;6.256;2023-02-12T09:30:57;98224.06;;;6.18;84.94
41334;BME280;27078;46.428;6.256;2023-02-12T09:33:23;98221.16;;;6.24;80.06
41334;BME280;27078;46.428;6.256;2023-02-12T09:35:48;98230.47;;;6.31;81.87
41334;BME280;27078;46.428;6.256;2023-02-12T09:38:14;98221.56;;;6.36;80.61
41334;BME280;27078;46.428;6.256;2023-02-12T09:41:21;98228.94;;;6.46;79.16
41334;BME280;27078;46.428;6.256;2023-02-12T09:43:52;98226.78;;;6.56;80.27
41334;BME280;27078;46.428;6.256;2023-02-12T09:46:32;98223.59;;;6.68;79.58
41334;BME280;27078;46.428;6.256;2023-02-12T09:49:10;98218.78;;;6.78;77.78
41334;BME280;27078;46.428;6.256;2023-02-12T09:51:38;98225.44;;;6.85;77.29
41334;BME280;27078;46.428;6.256;2023-02-12T09:54:09;98216.09;;;6.99;77.80
41334;BME280;27078;46.428;6.256;2023-02-12T09:56:36;98225.38;;;7.06;78.84
41334;BME280;27078;46.428;6.256;2023-02-12T09:59:05;98226.44;;;7.21;77.00
41334;BME280;27078;46.428;6.256;2023-02-12T10:01:31;98226.50;;;7.19;77.03
41334;BME280;27078;46.428;6.256;2023-02-12T10:03:58;98228.50;;;7.33;76.66
41334;BME280;27078;46.428;6.256;2023-02-12T10:06:28;98224.25;;;7.30;76.66
41334;BME280;27078;46.428;6.256;2023-02-12T10:09:00;98224.66;;;7.40;76.30
41334;BME280;27078;46.428;6.256;2023-02-12T10:27:46;98210.78;;;7.73;73.61
41334;BME280;27078;46.428;6.256;2023-02-12T10:30:20;98210.69;;;7.74;72.75
41334;BME280;27078;46.428;6.256;2023-02-12T10:32:50;98201.06;;;7.92;74.39
41334;BME280;27078;46.428;6.256;2023-02-12T10:35:18;98209.34;;;8.02;71.85
41334;BME280;27078;46.428;6.256;2023-02-12T10:37:56;98210.19;;;8.03;72.49
41334;BME280;27078;46.428;6.256;2023-02-12T10:40:30;98212.97;;;7.82;72.95
41334;BME280;27078;46.428;6.256;2023-02-12T10:42:59;98210.97;;;7.87;72.75
41334;BME280;27078;46.428;6.256;2023-02-12T10:45:32;98214.03;;;7.78;72.66
41334;BME280;27078;46.428;6.256;2023-02-12T10:48:04;98207.22;;;7.91;73.59
41334;BME280;27078;46.428;6.256;2023-02-12T10:53:41;98200.75;;;7.99;72.93
41334;BME280;27078;46.428;6.256;2023-02-12T10:56:16;98194.09;;;8.09;73.91
41334;BME280;27078;46.428;6.256;2023-02-12T10:58:54;98200.34;;;8.06;72.92
41334;BME280;27078;46.428;6.256;2023-02-12T11:01:34;98197.00;;;8.20;73.73
41334;BME280;27078;46.428;6.256;2023-02-12T11:04:28;98201.81;;;8.12;73.09
41334;BME280;27078;46.428;6.256;2023-02-12T11:07:04;98193.44;;;8.21;73.30
41334;BME280;27078;46.428;6.256;2023-02-12T11:09:42;98185.22;;;8.27;72.37
41334;BME280;27078;46.428;6.256;2023-02-12T11:14:57;98182.50;;;8.46;71.70
41334;BME280;27078;46.428;6.256;2023-02-12T11:17:34;98173.63;;;8.49;72.88
41334;BME280;27078;46.428;6.256;2023-02-12T11:20:21;98159.44;;;8.67;71.07
41334;BME280;27078;46.428;6.256;2023-02-12T11:23:29;98151.81;;;8.79;67.40
41334;BME280;27078;46.428;6.256;2023-02-12T11:26:02;98152.34;;;8.85;66.56
41334;BME280;27078;46.428;6.256;2023-02-12T11:28:29;98142.47;;;8.89;66.73
41334;BME280;27078;46.428;6.256;2023-02-12T11:30:58;98142.38;;;8.90;68.00
41334;BME280;27078;46.428;6.256;2023-02-12T11:33:30;98134.31;;;8.77;67.13
41334;BME280;27078;46.428;6.256;2023-02-12T11:36:00;98132.94;;;8.70;66.07
41334;BME280;27078;46.428;6.256;2023-02-12T11:38:30;98139.75;;;8.74;68.27
41334;BME280;27078;46.428;6.256;2023-02-12T11:40:59;98132.09;;;8.86;66.73
41334;BME280;27078;46.428;6.256;2023-02-12T11:43:26;98133.44;;;8.93;68.20
41334;BME280;27078;46.428;6.256;2023-02-12T11:45:54;98142.56;;;8.87;67.59
41334;BME280;27078;46.428;6.256;2023-02-12T11:48:22;98133.63;;;8.90;71.16
41334;BME280;27078;46.428;6.256;2023-02-12T11:50:51;98131.56;;;8.95;68.00
41334;BME280;27078;46.428;6.256;2023-02-12T11:53:31;98129.81;;;8.95;68.29
41334;BME280;27078;46.428;6.256;2023-02-12T11:56:03;98124.59;;;9.10;67.24
41334;BME280;27078;46.428;6.256;2023-02-12T11:58:29;98125.81;;;9.04;68.69
41334;BME280;27078;46.428;6.256;2023-02-12T12:03:42;98124.72;;;9.08;67.86
41334;BME280;27078;46.428;6.256;2023-02-12T12:06:20;98128.69;;;9.15;67.82
41334;BME280;27078;46.428;6.256;2023-02-12T12:13:53;98113.97;;;9.11;66.28
41334;BME280;27078;46.428;6.256;2023-02-12T12:16:29;98111.19;;;9.14;66.81
41334;BME280;27078;46.428;6.256;2023-02-12T12:22:34;98105.38;;;9.08;64.92
41334;BME280;27078;46.428;6.256;2023-02-12T12:27:36;98104.53;;;9.07;67.00
41334;BME280;27078;46.428;6.256;2023-02-12T12:30:40;98097.31;;;9.11;65.57
41334;BME280;27078;46.428;6.256;2023-02-12T12:33:35;98101.50;;;8.99;65.48
41334;BME280;27078;46.428;6.256;2023-02-12T12:46:54;98086.78;;;9.11;65.57
41334;BME280;27078;46.428;6.256;2023-02-12T12:49:48;98090.94;;;9.15;69.10
41334;BME280;27078;46.428;6.256;2023-02-12T12:52:35;98089.00;;;9.33;68.39
41334;BME280;27078;46.428;6.256;2023-02-12T13:17:04;98070.88;;;9.12;64.67
41334;BME280;27078;46.428;6.256;2023-02-12T13:22:20;98064.72;;;9.28;64.00
41334;BME280;27078;46.428;6.256;2023-02-12T13:25:02;98056.31;;;9.21;65.09
41334;BME280;27078;46.428;6.256;2023-02-12T13:27:36;98052.66;;;9.24;62.97
41334;BME280;27078;46.428;6.256;2023-02-12T13:33:11;98048.44;;;9.35;62.49
41334;BME280;27078;46.428;6.256;2023-02-12T13:35:43;98047.53;;;9.21;60.81
41334;BME280;27078;46.428;6.256;2023-02-12T13:38:17;98041.16;;;9.25;62.32
41334;BME280;27078;46.428;6.256;2023-02-12T13:40:45;98048.56;;;9.18;62.33
41334;BME280;27078;46.428;6.256;2023-02-12T13:51:46;98035.09;;;9.38;62.85
41334;BME280;27078;46.428;6.256;2023-02-12T13:56:51;98037.25;;;9.32;64.36
41334;BME280;27078;46.428;6.256;2023-02-12T13:59:41;98034.59;;;9.32;64.16
41334;BME280;27078;46.428;6.256;2023-02-12T14:04:59;98042.22;;;9.36;62.57
41334;BME280;27078;46.428;6.256;2023-02-12T14:12:55;98045.50;;;9.26;64.36
41334;BME280;27078;46.428;6.256;2023-02-12T14:15:43;98047.53;;;9.21;64.03
41334;BME280;27078;46.428;6.256;2023-02-12T14:18:34;98048.91;;;9.28;65.44
41334;BME280;27078;46.428;6.256;2023-02-12T14:23:53;98044.53;;;9.27;64.87
41334;BME280;27078;46.428;6.256;2023-02-12T14:26:21;98043.44;;;9.31;64.43
41334;BME280;27078;46.428;6.256;2023-02-12T14:33:45;98041.19;;;9.39;64.30
41334;BME280;27078;46.428;6.256;2023-02-12T14:41:22;98039.63;;;9.21;65.01
41334;BME280;27078;46.428;6.256;2023-02-12T14:49:56;98052.66;;;9.24;66.13
41334;BME280;27078;46.428;6.256;2023-02-12T14:52:26;98050.56;;;9.14;65.67
41334;BME280;27078;46.428;6.256;2023-02-12T14:55:02;98047.03;;;9.14;67.62
41334;BME280;27078;46.428;6.256;2023-02-12T14:57:39;98052.59;;;9.09;65.74
41334;BME280;27078;46.428;6.256;2023-02-12T15:00:18;98053.34;;;9.11;65.22
41334;BME280;27078;46.428;6.256;2023-02-12T15:05:26;98052.78;;;8.90;66.36
41334;BME280;27078;46.428;6.256;2023-02-12T15:08:02;98055.78;;;8.84;67.38
41334;BME280;27078;46.428;6.256;2023-02-12T15:10:36;98050.59;;;8.83;68.00
41334;BME280;27078;46.428;6.256;2023-02-12T15:15:49;98048.97;;;8.80;66.34
41334;BME280;27078;46.428;6.256;2023-02-12T15:18:23;98051.19;;;8.72;67.39
41334;BME280;27078;46.428;6.256;2023-02-12T15:21:16;98052.22;;;8.69;67.19
41334;BME280;27078;46.428;6.256;2023-02-12T15:23:45;98048.91;;;8.82;67.67
41334;BME280;27078;46.428;6.256;2023-02-12T15:26:17;98054.84;;;8.69;66.55
41334;BME280;27078;46.428;6.256;2023-02-12T15:28:46;98054.94;;;8.68;68.37
41334;BME280;27078;46.428;6.256;2023-02-12T15:31:16;98051.44;;;8.67;68.02
41334;BME280;27078;46.428;6.256;2023-02-12T15:33:48;98055.59;;;8.71;67.13
41334;BME280;27078;46.428;6.256;2023-02-12T15:36:19;98054.78;;;8.71;67.71
41334;BME280;27078;46.428;6.256;2023-02-12T15:38:50;98051.38;;;8.69;68.20
41334;BME280;27078;46.428;6.256;2023-02-12T15:41:28;98051.44;;;8.67;67.62
41334;BME280;27078;46.428;6.256;2023-02-12T15:44:01;98049.91;;;8.63;67.50
41334;BME280;27078;46.428;6.256;2023-02-12T15:46:26;98052.88;;;8.57;68.15
41334;BME280;27078;46.428;6.256;2023-02-12T15:48:52;98054.59;;;8.58;67.76
41334;BME280;27078;46.428;6.256;2023-02-12T15:51:36;98051.03;;;8.59;67.71